Time;durP1;ratioP1;P1;durP2;ratioP2;P2;SDS_P1;SDS_P2;PMS_P1;PMS_P2;Temp;Humidity;BMP_temperature;BMP_pressure;BME280_temperature;BME280_humidity;BME280_pressure;Samples;Min_cycle;Max_cycle;Signal;HPM_P1;HPM_P2
2021/09/04 00:00:18;;;;;;;33.13;19.10;;;;;;;;;;5053809;28;20534;-73
2021/09/04 00:02:46;;;;;;;31.47;18.73;;;;;;;;;;5052930;28;20448;-72
2021/09/04 00:05:13;;;;;;;29.87;18.77;;;;;;;;;;5053750;28;20937;-72
2021/09/04 00:07:40;;;;;;;30.60;17.23;;;;;;;;;;5053345;28;20474;-73
2021/09/04 00:10:09;;;;;;;26.43;18.67;;;;;;;;;;5052842;28;20528;-72
2021/09/04 00:12:36;;;;;;;25.73;17.30;;;;;;;;;;5053329;28;20469;-73
2021/09/04 00:15:04;;;;;;;27.00;19.20;;;;;;;;;;5053134;28;20451;-73
2021/09/04 00:17:31;;;;;;;29.37;18.50;;;;;;;;;;5053008;28;20812;-73
2021/09/04 00:19:58;;;;;;;28.10;17.37;;;;;;;;;;5053147;28;20537;-73
2021/09/04 00:22:26;;;;;;;31.83;19.23;;;;;;;;;;5053151;28;20450;-73
2021/09/04 00:24:53;;;;;;;29.37;19.40;;;;;;;;;;5053106;28;20442;-73
2021/09/04 00:27:22;;;;;;;26.13;18.90;;;;;;;;;;5053089;28;20447;-72
2021/09/04 00:29:49;;;;;;;27.23;18.03;;;;;;;;;;5055005;28;21049;-73
2021/09/04 00:32:16;;;;;;;29.47;20.10;;;;;;;;;;5057584;28;20468;-74
2021/09/04 00:34:43;;;;;;;32.40;19.70;;;;;;;;;;5056930;28;20452;-73
2021/09/04 00:37:10;;;;;;;32.37;18.97;;;;;;;;;;5056967;28;21002;-73
2021/09/04 00:39:38;;;;;;;31.60;20.53;;;;;;;;;;5056860;28;20544;-72
2021/09/04 00:42:05;;;;;;;27.30;19.23;;;;;;;;;;5056908;28;20529;-73
2021/09/04 00:44:34;;;;;;;35.60;21.53;;;;;;;;;;5056774;28;20434;-73
2021/09/04 00:47:02;;;;;;;30.03;19.00;;;;;;;;;;5056473;28;20438;-73
2021/09/04 00:49:29;;;;;;;30.60;20.17;;;;;;;;;;5056074;28;20497;-73
2021/09/04 00:51:56;;;;;;;27.80;18.83;;;;;;;;;;5056624;28;20846;-73
2021/09/04 00:54:23;;;;;;;35.57;20.30;;;;;;;;;;5056996;28;20802;-73
2021/09/04 00:56:51;;;;;;;31.33;21.23;;;;;;;;;;5056528;28;20536;-73
2021/09/04 00:59:18;;;;;;;31.23;20.90;;;;;;;;;;5056178;28;20447;-73
2021/09/04 01:01:46;;;;;;;31.83;20.67;;;;;;;;;;5056150;28;20451;-73
2021/09/04 01:04:14;;;;;;;38.40;21.50;;;;;;;;;;5056540;28;20528;-73
2021/09/04 01:06:41;;;;;;;31.93;22.47;;;;;;;;;;5056425;28;20446;-73
2021/09/04 01:09:08;;;;;;;37.63;20.90;;;;;;;;;;5056301;28;20477;-73
2021/09/04 01:11:35;;;;;;;37.50;23.27;;;;;;;;;;5056315;28;20519;-73
2021/09/04 01:14:03;;;;;;;36.53;24.57;;;;;;;;;;5056005;28;20445;-73
2021/09/04 01:16:36;;;;;;;32.83;22.90;;;;;;;;;;5055927;28;20450;-73
2021/09/04 01:19:05;;;;;;;34.60;22.33;;;;;;;;;;5056204;28;20465;-73
2021/09/04 01:21:33;;;;;;;38.30;22.43;;;;;;;;;;5056413;28;20438;-73
2021/09/04 01:24:01;;;;;;;39.30;23.37;;;;;;;;;;5056289;28;20443;-73
2021/09/04 01:26:30;;;;;;;36.87;24.20;;;;;;;;;;5056497;28;20437;-73
2021/09/04 01:28:57;;;;;;;37.83;23.43;;;;;;;;;;5055874;28;20471;-72
2021/09/04 01:31:24;;;;;;;36.23;24.57;;;;;;;;;;5055593;28;20532;-73
2021/09/04 01:33:52;;;;;;;39.83;23.80;;;;;;;;;;5056078;28;20799;-73
2021/09/04 01:36:29;;;;;;;34.73;25.20;;;;;;;;;;5055844;28;20443;-73
2021/09/04 01:38:56;;;;;;;36.77;24.50;;;;;;;;;;5056010;28;20445;-72
2021/09/04 01:41:24;;;;;;;51.43;28.17;;;;;;;;;;5055014;28;20441;-72
2021/09/04 01:43:52;;;;;;;52.90;29.33;;;;;;;;;;5056227;28;20790;-72
2021/09/04 01:46:20;;;;;;;46.63;28.13;;;;;;;;;;5056067;28;20437;-73
2021/09/04 01:48:47;;;;;;;44.03;28.50;;;;;;;;;;5055234;28;20938;-73
2021/09/04 01:51:14;;;;;;;48.80;28.63;;;;;;;;;;5055520;28;20449;-73
2021/09/04 01:53:42;;;;;;;46.73;27.20;;;;;;;;;;5055563;28;20439;-73
2021/09/04 01:56:09;;;;;;;48.80;29.50;;;;;;;;;;5055312;28;20951;-73
2021/09/04 01:58:36;;;;;;;44.43;27.20;;;;;;;;;;5055601;28;20529;-73
2021/09/04 02:01:05;;;;;;;42.40;28.30;;;;;;;;;;5055374;28;20445;-73
2021/09/04 02:03:32;;;;;;;36.80;27.60;;;;;;;;;;5055012;28;20521;-73
2021/09/04 02:05:59;;;;;;;36.70;25.80;;;;;;;;;;5054954;28;20439;-73
2021/09/04 02:08:27;;;;;;;41.60;25.83;;;;;;;;;;5055108;28;21007;-73
2021/09/04 02:10:54;;;;;;;38.30;26.67;;;;;;;;;;5054775;28;20450;-73
2021/09/04 02:13:21;;;;;;;50.83;24.53;;;;;;;;;;5055176;28;20453;-73
2021/09/04 02:15:48;;;;;;;36.63;24.77;;;;;;;;;;5055524;28;20441;-73
2021/09/04 02:18:17;;;;;;;40.93;25.90;;;;;;;;;;5055318;28;20804;-73
2021/09/04 02:20:44;;;;;;;42.07;23.70;;;;;;;;;;5054959;28;20445;-73
2021/09/04 02:23:11;;;;;;;36.53;24.37;;;;;;;;;;5054606;28;20450;-74
2021/09/04 02:25:39;;;;;;;46.63;24.33;;;;;;;;;;5054550;28;20537;-73
2021/09/04 02:28:06;;;;;;;37.33;22.63;;;;;;;;;;5054475;28;20446;-73
2021/09/04 02:30:33;;;;;;;37.83;23.27;;;;;;;;;;5054746;28;20461;-73
2021/09/04 02:33:00;;;;;;;37.57;24.47;;;;;;;;;;5054413;28;20447;-73
2021/09/04 02:35:29;;;;;;;36.10;23.17;;;;;;;;;;5054387;28;20446;-73
2021/09/04 02:37:56;;;;;;;35.40;23.50;;;;;;;;;;5054666;28;20517;-73
2021/09/04 02:40:23;;;;;;;31.23;23.20;;;;;;;;;;5055258;28;20458;-73
2021/09/04 02:42:50;;;;;;;39.40;24.33;;;;;;;;;;5054579;28;20442;-73
2021/09/04 02:45:17;;;;;;;38.63;25.80;;;;;;;;;;5054582;28;20536;-72
2021/09/04 02:47:45;;;;;;;35.00;23.43;;;;;;;;;;5054447;28;20454;-72
2021/09/04 02:50:12;;;;;;;38.80;21.93;;;;;;;;;;5054856;28;20477;-73
2021/09/04 02:52:40;;;;;;;32.97;23.10;;;;;;;;;;5053934;28;20438;-72
2021/09/04 02:55:08;;;;;;;36.90;22.73;;;;;;;;;;5054300;28;20446;-72
2021/09/04 02:57:35;;;;;;;40.73;24.97;;;;;;;;;;5054047;28;20446;-72
2021/09/04 03:00:02;;;;;;;38.83;21.33;;;;;;;;;;5054299;28;20437;-73
2021/09/04 03:02:29;;;;;;;33.50;23.43;;;;;;;;;;5054079;28;20438;-72
2021/09/04 03:04:57;;;;;;;41.27;25.33;;;;;;;;;;5053891;28;21000;-74
2021/09/04 03:07:24;;;;;;;39.77;23.20;;;;;;;;;;5053915;28;20518;-73
2021/09/04 03:09:52;;;;;;;35.07;23.00;;;;;;;;;;5053752;28;20480;-73
2021/09/04 03:12:19;;;;;;;38.57;23.00;;;;;;;;;;5053804;28;20956;-73
2021/09/04 03:14:47;;;;;;;34.07;22.93;;;;;;;;;;5053990;28;20445;-73
2021/09/04 03:17:14;;;;;;;41.13;22.97;;;;;;;;;;5054007;28;20457;-73
2021/09/04 03:19:41;;;;;;;35.83;22.70;;;;;;;;;;5054507;28;20457;-73
2021/09/04 03:22:08;;;;;;;39.70;23.20;;;;;;;;;;5053961;28;20442;-73
2021/09/04 03:24:36;;;;;;;39.90;24.60;;;;;;;;;;5053909;28;20442;-73
2021/09/04 03:27:06;;;;;;;35.90;22.20;;;;;;;;;;5053851;28;20491;-73
2021/09/04 03:29:33;;;;;;;45.60;23.07;;;;;;;;;;5053714;28;20477;-73
2021/09/04 03:32:00;;;;;;;37.53;23.60;;;;;;;;;;5053674;28;20446;-74
2021/09/04 03:34:27;;;;;;;32.57;22.00;;;;;;;;;;5054227;28;20437;-73
2021/09/04 03:36:54;;;;;;;37.60;21.80;;;;;;;;;;5053666;28;20442;-73
2021/09/04 03:39:22;;;;;;;42.50;23.73;;;;;;;;;;5053632;28;20446;-73
2021/09/04 03:41:49;;;;;;;38.17;23.20;;;;;;;;;;5053270;28;20508;-73
2021/09/04 03:44:17;;;;;;;29.63;20.23;;;;;;;;;;5053540;28;20469;-73
2021/09/04 03:46:45;;;;;;;40.27;23.00;;;;;;;;;;5053482;28;20445;-73
2021/09/04 03:49:12;;;;;;;34.00;22.80;;;;;;;;;;5053649;28;20489;-73
2021/09/04 03:51:39;;;;;;;39.67;23.77;;;;;;;;;;5053397;28;20442;-73
2021/09/04 03:54:06;;;;;;;41.97;23.07;;;;;;;;;;5053841;28;20452;-72
2021/09/04 03:56:33;;;;;;;39.03;24.27;;;;;;;;;;5053448;28;20442;-73
2021/09/04 03:59:00;;;;;;;39.93;22.63;;;;;;;;;;5052964;28;20457;-73
2021/09/04 04:01:29;;;;;;;39.23;26.10;;;;;;;;;;5052770;28;20449;-74
2021/09/04 04:03:56;;;;;;;42.20;26.17;;;;;;;;;;5052900;28;20444;-73
2021/09/04 04:06:23;;;;;;;43.60;25.00;;;;;;;;;;5053370;28;20438;-73
2021/09/04 04:08:50;;;;;;;46.23;25.70;;;;;;;;;;5052906;28;20438;-73
2021/09/04 04:11:18;;;;;;;46.63;27.50;;;;;;;;;;5052928;28;20446;-73
2021/09/04 04:13:45;;;;;;;44.30;27.40;;;;;;;;;;5052991;28;20935;-74
2021/09/04 04:16:12;;;;;;;49.53;26.97;;;;;;;;;;5053186;28;20464;-72
2021/09/04 04:18:41;;;;;;;43.27;27.90;;;;;;;;;;5052969;28;20450;-73
2021/09/04 04:21:08;;;;;;;56.43;27.07;;;;;;;;;;5053122;28;20446;-73
2021/09/04 04:23:35;;;;;;;48.33;27.03;;;;;;;;;;5053104;28;20444;-72
2021/09/04 04:26:03;;;;;;;44.87;29.47;;;;;;;;;;5068600;28;20441;-72
2021/09/04 04:28:30;;;;;;;48.87;27.60;;;;;;;;;;5071558;28;20446;-73
2021/09/04 04:30:57;;;;;;;50.23;27.40;;;;;;;;;;5071414;28;20473;-73
2021/09/04 04:33:24;;;;;;;50.17;32.33;;;;;;;;;;5072039;28;20931;-73
2021/09/04 04:35:53;;;;;;;56.60;32.90;;;;;;;;;;5072636;28;20811;-73
2021/09/04 04:38:20;;;;;;;58.00;33.23;;;;;;;;;;5072554;28;20443;-73
2021/09/04 04:40:47;;;;;;;60.23;34.17;;;;;;;;;;5072127;28;20448;-73
2021/09/04 04:43:14;;;;;;;50.77;32.20;;;;;;;;;;5072326;28;20801;-73
2021/09/04 04:45:41;;;;;;;51.13;30.20;;;;;;;;;;5072212;28;20441;-73
2021/09/04 04:48:09;;;;;;;50.37;30.10;;;;;;;;;;5072544;28;20452;-73
2021/09/04 04:50:36;;;;;;;47.17;27.27;;;;;;;;;;5071438;28;20516;-73
2021/09/04 04:53:05;;;;;;;45.70;26.83;;;;;;;;;;5072163;28;20442;-73
2021/09/04 04:55:32;;;;;;;49.60;25.50;;;;;;;;;;5081548;28;20444;-73
2021/09/04 04:57:59;;;;;;;34.60;23.80;;;;;;;;;;5092616;28;20444;-73
2021/09/04 05:00:27;;;;;;;40.83;26.20;;;;;;;;;;5092184;28;20446;-73
2021/09/04 05:02:54;;;;;;;37.60;23.87;;;;;;;;;;5092822;28;20787;-73
2021/09/04 05:05:21;;;;;;;33.03;23.90;;;;;;;;;;5092171;28;20953;-73
2021/09/04 05:07:48;;;;;;;39.17;24.30;;;;;;;;;;5092210;28;20535;-73
2021/09/04 05:10:17;;;;;;;31.53;20.67;;;;;;;;;;5092183;28;20471;-73
2021/09/04 05:12:44;;;;;;;37.97;21.53;;;;;;;;;;5091838;28;20459;-73
2021/09/04 05:15:12;;;;;;;35.37;22.70;;;;;;;;;;5092558;28;20535;-73
2021/09/04 05:17:39;;;;;;;33.77;22.03;;;;;;;;;;5095638;28;20443;-73
2021/09/04 05:20:07;;;;;;;36.20;22.20;;;;;;;;;;5095334;28;20435;-72
2021/09/04 05:22:34;;;;;;;30.97;21.13;;;;;;;;;;5096005;28;20444;-72
2021/09/04 05:25:01;;;;;;;38.20;23.40;;;;;;;;;;5093434;28;20446;-72
2021/09/04 05:27:30;;;;;;;39.80;21.67;;;;;;;;;;5096086;28;20447;-74
2021/09/04 05:29:57;;;;;;;35.80;21.17;;;;;;;;;;5095749;28;20468;-74
2021/09/04 05:32:24;;;;;;;29.03;19.17;;;;;;;;;;5095985;28;20476;-72
2021/09/04 05:34:51;;;;;;;29.63;19.23;;;;;;;;;;5096320;28;20436;-73
2021/09/04 05:37:19;;;;;;;28.33;18.30;;;;;;;;;;5095609;28;20447;-72
2021/09/04 05:39:46;;;;;;;27.27;19.67;;;;;;;;;;5095958;28;20452;-73
2021/09/04 05:42:13;;;;;;;35.03;21.70;;;;;;;;;;5095993;28;20451;-73
2021/09/04 05:44:42;;;;;;;28.07;19.57;;;;;;;;;;5094849;28;20444;-72
2021/09/04 05:47:09;;;;;;;32.80;20.10;;;;;;;;;;5095893;28;20473;-73
2021/09/04 05:49:36;;;;;;;26.33;17.87;;;;;;;;;;5095982;28;20498;-73
2021/09/04 05:52:04;;;;;;;34.30;20.27;;;;;;;;;;5095571;28;20444;-73
2021/09/04 05:54:31;;;;;;;28.20;18.77;;;;;;;;;;5096011;28;20446;-72
2021/09/04 05:56:58;;;;;;;33.13;19.60;;;;;;;;;;5091201;28;20974;-72
2021/09/04 05:59:25;;;;;;;26.80;19.27;;;;;;;;;;5095131;28;20445;-73
2021/09/04 06:01:54;;;;;;;32.27;18.97;;;;;;;;;;5095027;28;20444;-72
2021/09/04 06:04:21;;;;;;;35.90;21.30;;;;;;;;;;5095699;28;20799;-73
2021/09/04 06:06:48;;;;;;;29.67;19.63;;;;;;;;;;5095419;28;20445;-74
2021/09/04 06:09:15;;;;;;;31.57;20.90;;;;;;;;;;5095142;28;20453;-73
2021/09/04 06:11:43;;;;;;;36.03;20.40;;;;;;;;;;5095404;28;20486;-74
2021/09/04 06:14:10;;;;;;;32.27;19.30;;;;;;;;;;5094563;28;20891;-73
2021/09/04 06:16:37;;;;;;;30.67;19.60;;;;;;;;;;5095319;28;20463;-72
2021/09/04 06:19:06;;;;;;;32.13;19.50;;;;;;;;;;5094829;28;20455;-73
2021/09/04 06:21:33;;;;;;;32.17;20.10;;;;;;;;;;5094502;28;20450;-73
2021/09/04 06:24:01;;;;;;;30.97;19.17;;;;;;;;;;5094329;28;20447;-72
2021/09/04 06:26:28;;;;;;;33.17;21.57;;;;;;;;;;5094529;28;20471;-72
2021/09/04 06:28:55;;;;;;;29.80;18.47;;;;;;;;;;5092957;28;20448;-73
2021/09/04 06:31:22;;;;;;;33.03;19.50;;;;;;;;;;5095186;28;20481;-72
2021/09/04 06:33:49;;;;;;;30.03;20.33;;;;;;;;;;5094426;28;20525;-73
2021/09/04 06:36:18;;;;;;;29.07;19.47;;;;;;;;;;5095533;28;20478;-73
2021/09/04 06:38:46;;;;;;;34.87;19.40;;;;;;;;;;5095076;28;20447;-73
2021/09/04 06:41:13;;;;;;;35.30;20.50;;;;;;;;;;5094783;28;20975;-73
2021/09/04 06:43:40;;;;;;;34.30;20.20;;;;;;;;;;5094199;28;20543;-73
2021/09/04 06:46:08;;;;;;;36.43;21.77;;;;;;;;;;5094414;28;20448;-73
2021/09/04 06:48:35;;;;;;;31.20;21.87;;;;;;;;;;5094746;28;20475;-73
2021/09/04 06:51:02;;;;;;;35.83;20.93;;;;;;;;;;5094650;28;20511;-74
2021/09/04 06:53:31;;;;;;;37.87;23.50;;;;;;;;;;5094124;28;20540;-73
2021/09/04 06:55:58;;;;;;;34.33;21.87;;;;;;;;;;5095248;28;20444;-72
2021/09/04 06:58:25;;;;;;;34.90;22.20;;;;;;;;;;5085523;28;20443;-73
2021/09/04 07:00:57;;;;;;;35.17;23.63;;;;;;;;;;5073718;28;20449;-73
2021/09/04 07:03:24;;;;;;;34.00;22.40;;;;;;;;;;5074181;28;20463;-73
2021/09/04 07:05:52;;;;;;;33.27;23.07;;;;;;;;;;5074161;28;20438;-73
2021/09/04 07:08:19;;;;;;;33.30;23.43;;;;;;;;;;5074090;28;20468;-73
2021/09/04 07:10:47;;;;;;;33.43;21.17;;;;;;;;;;5074193;28;20487;-73
2021/09/04 07:13:15;;;;;;;34.67;23.07;;;;;;;;;;5073476;28;20525;-73
2021/09/04 07:15:43;;;;;;;41.67;24.40;;;;;;;;;;5073725;28;20925;-73
2021/09/04 07:18:10;;;;;;;32.30;21.73;;;;;;;;;;5073401;28;21009;-73
2021/09/04 07:20:37;;;;;;;44.87;23.80;;;;;;;;;;5074265;28;20446;-73
2021/09/04 07:23:04;;;;;;;33.00;21.53;;;;;;;;;;5073784;28;20446;-74
2021/09/04 07:25:32;;;;;;;34.30;23.40;;;;;;;;;;5074214;28;20449;-74
2021/09/04 07:28:00;;;;;;;33.87;22.30;;;;;;;;;;5073576;28;20438;-73
2021/09/04 07:30:28;;;;;;;33.87;23.97;;;;;;;;;;5085465;28;20476;-73
2021/09/04 07:32:55;;;;;;;32.67;22.50;;;;;;;;;;5093673;28;20536;-73
2021/09/04 07:35:22;;;;;;;34.30;23.90;;;;;;;;;;5093386;28;20440;-73
2021/09/04 07:37:49;;;;;;;39.20;25.60;;;;;;;;;;5093643;28;20526;-74
2021/09/04 07:40:23;;;;;;;32.60;23.80;;;;;;;;;;5092801;28;20448;-73
2021/09/04 07:42:50;;;;;;;37.10;26.20;;;;;;;;;;5093835;28;20531;-74
2021/09/04 07:45:19;;;;;;;33.90;25.50;;;;;;;;;;5093245;28;20447;-73
2021/09/04 07:47:46;;;;;;;39.00;26.57;;;;;;;;;;5093626;28;20812;-74
2021/09/04 07:50:13;;;;;;;32.77;24.90;;;;;;;;;;5094196;28;20551;-73
2021/09/04 07:52:40;;;;;;;35.23;25.43;;;;;;;;;;5093643;28;20442;-74
2021/09/04 07:55:08;;;;;;;33.37;26.23;;;;;;;;;;5093059;28;20450;-73
2021/09/04 07:57:35;;;;;;;37.83;28.10;;;;;;;;;;5093091;28;20444;-73
2021/09/04 08:00:02;;;;;;;33.83;25.20;;;;;;;;;;5090962;28;20800;-72
2021/09/04 08:02:31;;;;;;;37.33;26.57;;;;;;;;;;5092712;28;20436;-74
2021/09/04 08:04:58;;;;;;;32.17;25.37;;;;;;;;;;5093109;28;20468;-72
2021/09/04 08:07:25;;;;;;;36.40;25.63;;;;;;;;;;5093310;28;20448;-73
2021/09/04 08:09:53;;;;;;;33.63;25.43;;;;;;;;;;5093043;28;20448;-72
2021/09/04 08:12:20;;;;;;;35.73;24.23;;;;;;;;;;5093314;28;20505;-72
2021/09/04 08:14:47;;;;;;;31.90;23.40;;;;;;;;;;5093148;28;20528;-73
2021/09/04 08:17:14;;;;;;;33.73;24.83;;;;;;;;;;5093073;28;20440;-72
2021/09/04 08:19:43;;;;;;;32.13;24.03;;;;;;;;;;5092897;28;20474;-72
2021/09/04 08:22:10;;;;;;;30.70;24.67;;;;;;;;;;5093343;28;20804;-72
2021/09/04 08:24:37;;;;;;;31.13;22.30;;;;;;;;;;5093017;28;20437;-73
2021/09/04 08:27:04;;;;;;;29.67;23.43;;;;;;;;;;5092895;28;20452;-73
2021/09/04 08:29:32;;;;;;;31.40;21.90;;;;;;;;;;5092651;28;20447;-73
2021/09/04 08:31:59;;;;;;;26.30;21.20;;;;;;;;;;5090719;28;20477;-72
2021/09/04 08:34:26;;;;;;;29.37;22.57;;;;;;;;;;5092695;28;20540;-73
2021/09/04 08:36:55;;;;;;;31.30;24.40;;;;;;;;;;5093196;28;20442;-72
2021/09/04 08:39:22;;;;;;;31.07;23.80;;;;;;;;;;5092833;28;20438;-73
2021/09/04 08:41:49;;;;;;;31.00;22.77;;;;;;;;;;5092795;28;20443;-72
2021/09/04 08:44:16;;;;;;;35.47;23.53;;;;;;;;;;5092594;28;20926;-72
2021/09/04 08:46:44;;;;;;;31.73;23.50;;;;;;;;;;5092733;28;20457;-72
2021/09/04 08:49:11;;;;;;;34.47;25.83;;;;;;;;;;5091128;28;20567;-73
2021/09/04 08:51:38;;;;;;;33.07;25.50;;;;;;;;;;5096334;28;20930;-72
2021/09/04 08:54:07;;;;;;;31.80;23.63;;;;;;;;;;5096977;28;20449;-73
2021/09/04 08:56:34;;;;;;;33.17;25.80;;;;;;;;;;5096619;28;20436;-73
2021/09/04 08:59:01;;;;;;;31.67;25.77;;;;;;;;;;5095601;28;20452;-72
2021/09/04 09:01:29;;;;;;;32.60;24.60;;;;;;;;;;5095645;28;20449;-72
2021/09/04 09:03:57;;;;;;;30.17;24.10;;;;;;;;;;5096742;28;20472;-72
2021/09/04 09:06:25;;;;;;;32.87;24.97;;;;;;;;;;5096437;28;20963;-73
2021/09/04 09:08:53;;;;;;;32.60;24.70;;;;;;;;;;5096020;28;20485;-72
2021/09/04 09:11:22;;;;;;;30.00;23.07;;;;;;;;;;5096527;28;20484;-73
2021/09/04 09:13:50;;;;;;;34.00;23.20;;;;;;;;;;5095749;28;20453;-72
2021/09/04 09:16:17;;;;;;;29.03;21.53;;;;;;;;;;5096158;28;20443;-73
2021/09/04 09:18:55;;;;;;;23.17;19.07;;;;;;;;;;5094258;28;20460;-73
2021/09/04 09:21:27;;;;;;;32.87;21.90;;;;;;;;;;5096700;28;20449;-73
2021/09/04 09:24:07;;;;;;;25.20;19.97;;;;;;;;;;5096392;28;20922;-73
2021/09/04 09:26:35;;;;;;;25.47;19.30;;;;;;;;;;5096172;28;20518;-73
2021/09/04 09:29:15;;;;;;;23.30;18.40;;;;;;;;;;5096042;28;20443;-73
2021/09/04 09:31:42;;;;;;;20.63;17.60;;;;;;;;;;5096264;28;20466;-73
2021/09/04 09:34:10;;;;;;;25.30;17.70;;;;;;;;;;5096422;28;20439;-73
2021/09/04 09:36:47;;;;;;;25.03;19.00;;;;;;;;;;5096027;28;20438;-73
2021/09/04 09:39:14;;;;;;;20.10;17.40;;;;;;;;;;5095527;28;20915;-73
2021/09/04 09:41:47;;;;;;;21.93;18.23;;;;;;;;;;5096050;28;20459;-73
2021/09/04 09:44:18;;;;;;;19.23;16.47;;;;;;;;;;5095762;28;20431;-73
2021/09/04 09:46:49;;;;;;;27.23;18.60;;;;;;;;;;5096055;28;20789;-73
2021/09/04 09:49:16;;;;;;;20.23;16.90;;;;;;;;;;5080216;28;20478;-74
2021/09/04 09:51:44;;;;;;;25.53;17.97;;;;;;;;;;5075157;28;20828;-74
2021/09/04 09:54:13;;;;;;;24.27;17.60;;;;;;;;;;5075341;28;20438;-73
2021/09/04 09:56:40;;;;;;;20.50;17.00;;;;;;;;;;5075091;28;20451;-73
2021/09/04 09:59:12;;;;;;;22.33;17.60;;;;;;;;;;5075241;28;20450;-73
2021/09/04 10:01:40;;;;;;;24.70;16.30;;;;;;;;;;5074339;28;20439;-73
2021/09/04 10:04:11;;;;;;;22.50;15.60;;;;;;;;;;5075258;28;20454;-73
2021/09/04 10:06:39;;;;;;;22.87;16.30;;;;;;;;;;5075416;28;20798;-73
2021/09/04 10:09:07;;;;;;;25.33;18.43;;;;;;;;;;5074742;28;20447;-73
2021/09/04 10:11:38;;;;;;;21.27;16.40;;;;;;;;;;5075156;28;20482;-73
2021/09/04 10:14:06;;;;;;;18.90;15.50;;;;;;;;;;5075063;28;20436;-73
2021/09/04 10:16:35;;;;;;;19.20;15.63;;;;;;;;;;5074824;28;20437;-73
2021/09/04 10:19:03;;;;;;;20.40;15.60;;;;;;;;;;5076155;28;20944;-74
2021/09/04 10:21:37;;;;;;;19.03;15.17;;;;;;;;;;5095926;28;20454;-73
2021/09/04 10:24:05;;;;;;;22.40;16.13;;;;;;;;;;5095594;28;20430;-73
2021/09/04 10:26:33;;;;;;;19.57;16.97;;;;;;;;;;5094659;28;20462;-73
2021/09/04 10:29:05;;;;;;;19.47;16.00;;;;;;;;;;5094741;28;20527;-73
2021/09/04 10:31:48;;;;;;;23.37;17.27;;;;;;;;;;5094446;28;20477;-73
2021/09/04 10:34:16;;;;;;;24.23;15.33;;;;;;;;;;5094594;28;20432;-73
2021/09/04 10:37:04;;;;;;;19.90;15.40;;;;;;;;;;5095148;28;20449;-74
2021/09/04 10:39:48;;;;;;;18.60;14.50;;;;;;;;;;5094413;28;20472;-74
2021/09/04 10:42:16;;;;;;;19.73;15.57;;;;;;;;;;5094474;28;20446;-74
2021/09/04 10:44:44;;;;;;;23.53;15.50;;;;;;;;;;5094889;28;20502;-74
2021/09/04 10:47:13;;;;;;;18.90;15.23;;;;;;;;;;5094480;28;20452;-74
2021/09/04 10:49:41;;;;;;;25.70;16.63;;;;;;;;;;5091887;28;20489;-74
2021/09/04 10:52:09;;;;;;;20.00;14.87;;;;;;;;;;5094470;28;20527;-74
2021/09/04 10:54:40;;;;;;;16.77;14.27;;;;;;;;;;5094492;28;20452;-74
2021/09/04 10:57:14;;;;;;;21.87;15.33;;;;;;;;;;5094275;28;20440;-73
2021/09/04 11:00:00;;;;;;;19.90;15.03;;;;;;;;;;5093948;28;20527;-74
2021/09/04 11:02:40;;;;;;;18.60;13.23;;;;;;;;;;5093958;28;20447;-73
2021/09/04 11:05:27;;;;;;;23.33;16.20;;;;;;;;;;5095074;28;20503;-73
2021/09/04 11:08:00;;;;;;;19.00;15.10;;;;;;;;;;5094332;28;20431;-73
2021/09/04 11:10:27;;;;;;;20.17;14.07;;;;;;;;;;5093545;28;20932;-73
2021/09/04 11:13:08;;;;;;;21.37;14.20;;;;;;;;;;5094173;28;20527;-73
2021/09/04 11:15:35;;;;;;;21.10;14.93;;;;;;;;;;5093816;28;20859;-73
2021/09/04 11:18:04;;;;;;;20.77;15.60;;;;;;;;;;5093848;28;20446;-73
2021/09/04 11:20:31;;;;;;;19.67;13.77;;;;;;;;;;5091297;28;20921;-73
2021/09/04 11:22:59;;;;;;;18.37;14.13;;;;;;;;;;5093733;28;20449;-74
2021/09/04 11:25:26;;;;;;;22.37;14.57;;;;;;;;;;5093666;28;20451;-73
2021/09/04 11:27:53;;;;;;;19.90;15.67;;;;;;;;;;5093641;28;20448;-74
2021/09/04 11:30:21;;;;;;;17.90;14.97;;;;;;;;;;5093898;28;20441;-73
2021/09/04 11:32:48;;;;;;;20.60;14.67;;;;;;;;;;5093805;28;20483;-73
2021/09/04 11:35:17;;;;;;;21.07;15.20;;;;;;;;;;5093612;28;20929;-74
2021/09/04 11:37:45;;;;;;;23.50;13.83;;;;;;;;;;5093601;28;20872;-73
2021/09/04 11:40:15;;;;;;;16.60;12.70;;;;;;;;;;5093460;28;20444;-74
2021/09/04 11:42:43;;;;;;;19.30;14.27;;;;;;;;;;5093706;28;20436;-72
2021/09/04 11:45:11;;;;;;;19.13;14.10;;;;;;;;;;5093647;28;20446;-72
2021/09/04 11:47:40;;;;;;;19.10;14.20;;;;;;;;;;5093241;28;20434;-72
2021/09/04 11:50:08;;;;;;;16.87;13.53;;;;;;;;;;5093530;28;20465;-72
2021/09/04 11:52:37;;;;;;;17.40;13.13;;;;;;;;;;5092056;28;20488;-72
2021/09/04 11:55:07;;;;;;;18.97;15.30;;;;;;;;;;5093311;28;20461;-72
2021/09/04 11:57:36;;;;;;;17.70;13.93;;;;;;;;;;5093251;28;20944;-72
2021/09/04 12:00:08;;;;;;;21.10;14.50;;;;;;;;;;5093483;28;20450;-72
2021/09/04 12:02:36;;;;;;;18.87;13.50;;;;;;;;;;5092373;28;20450;-72
2021/09/04 12:05:05;;;;;;;21.07;14.47;;;;;;;;;;5093812;28;20440;-72
2021/09/04 12:07:33;;;;;;;20.63;13.13;;;;;;;;;;5094295;28;20779;-72
2021/09/04 12:10:02;;;;;;;19.97;13.17;;;;;;;;;;5093215;28;20437;-72
2021/09/04 12:12:30;;;;;;;18.17;13.43;;;;;;;;;;5093369;28;20476;-72
2021/09/04 12:14:57;;;;;;;18.27;13.70;;;;;;;;;;5093373;28;20919;-72
2021/09/04 12:17:25;;;;;;;18.00;13.10;;;;;;;;;;5093027;28;20452;-72
2021/09/04 12:19:52;;;;;;;15.00;13.30;;;;;;;;;;5093057;28;20476;-72
2021/09/04 12:22:20;;;;;;;21.73;12.57;;;;;;;;;;5091480;28;20516;-72
2021/09/04 12:24:47;;;;;;;16.40;12.20;;;;;;;;;;5093356;28;20442;-72
2021/09/04 12:27:15;;;;;;;17.03;12.73;;;;;;;;;;5097108;28;20926;-72
2021/09/04 12:29:43;;;;;;;15.50;12.60;;;;;;;;;;5097155;28;20475;-72
2021/09/04 12:32:11;;;;;;;15.80;12.50;;;;;;;;;;5097233;28;20476;-72
2021/09/04 12:34:39;;;;;;;18.67;13.07;;;;;;;;;;5097308;28;20998;-72
2021/09/04 12:37:21;;;;;;;19.40;14.00;;;;;;;;;;5096972;28;20961;-71
2021/09/04 12:39:50;;;;;;;14.83;13.20;;;;;;;;;;5097501;28;20440;-72
2021/09/04 12:42:18;;;;;;;15.93;11.10;;;;;;;;;;5096964;28;20496;-72
2021/09/04 12:44:46;;;;;;;15.83;12.17;;;;;;;;;;5097064;28;20452;-72
2021/09/04 12:47:14;;;;;;;17.90;11.87;;;;;;;;;;5097222;28;20433;-72
2021/09/04 12:49:42;;;;;;;19.93;14.00;;;;;;;;;;5096567;28;20478;-71
2021/09/04 12:52:16;;;;;;;13.17;11.70;;;;;;;;;;5096503;28;20546;-72
2021/09/04 12:54:44;;;;;;;14.33;11.60;;;;;;;;;;5094712;28;20479;-72
2021/09/04 12:57:13;;;;;;;17.33;11.53;;;;;;;;;;5096072;28;20443;-72
2021/09/04 12:59:46;;;;;;;14.80;11.03;;;;;;;;;;5096773;28;20442;-72
2021/09/04 13:02:14;;;;;;;17.97;12.50;;;;;;;;;;5095885;28;20933;-72
2021/09/04 13:04:42;;;;;;;16.23;11.50;;;;;;;;;;5096335;28;20466;-72
2021/09/04 13:07:09;;;;;;;12.90;10.50;;;;;;;;;;5096385;28;20455;-72
2021/09/04 13:09:36;;;;;;;12.80;10.97;;;;;;;;;;5096638;28;20469;-72
2021/09/04 13:12:03;;;;;;;13.77;12.00;;;;;;;;;;5096316;28;20476;-72
2021/09/04 13:14:31;;;;;;;14.67;11.03;;;;;;;;;;5096288;28;20665;-72
2021/09/04 13:16:59;;;;;;;16.93;10.90;;;;;;;;;;5096797;28;20446;-72
2021/09/04 13:19:30;;;;;;;17.37;10.70;;;;;;;;;;5096515;28;20462;-74
2021/09/04 13:21:57;;;;;;;14.43;11.47;;;;;;;;;;5095906;28;20433;-74
2021/09/04 13:24:24;;;;;;;13.90;10.50;;;;;;;;;;5083084;28;20487;-74
2021/09/04 13:26:52;;;;;;;12.47;11.17;;;;;;;;;;5076000;28;20472;-74
2021/09/04 13:29:20;;;;;;;13.73;10.50;;;;;;;;;;5075741;28;20875;-74
2021/09/04 13:31:48;;;;;;;13.23;11.20;;;;;;;;;;5075750;28;20440;-73
2021/09/04 13:34:17;;;;;;;13.20;10.67;;;;;;;;;;5075938;28;20432;-73
2021/09/04 13:36:45;;;;;;;14.60;10.50;;;;;;;;;;5074377;28;20433;-73
2021/09/04 13:39:13;;;;;;;12.90;10.97;;;;;;;;;;5075808;28;20862;-74
2021/09/04 13:41:41;;;;;;;12.33;10.37;;;;;;;;;;5075813;28;20440;-72
2021/09/04 13:44:08;;;;;;;12.17;10.30;;;;;;;;;;5075507;28;20441;-72
2021/09/04 13:46:36;;;;;;;12.87;10.67;;;;;;;;;;5075613;28;20450;-74
2021/09/04 13:49:04;;;;;;;17.53;10.40;;;;;;;;;;5075102;28;20467;-73
2021/09/04 13:51:33;;;;;;;10.40;9.30;;;;;;;;;;5075245;28;20445;-74
2021/09/04 13:54:01;;;;;;;13.03;10.10;;;;;;;;;;5075352;28;20469;-73
2021/09/04 13:56:28;;;;;;;14.77;10.93;;;;;;;;;;5073309;28;20429;-72
2021/09/04 13:58:56;;;;;;;13.70;11.93;;;;;;;;;;5075056;28;20448;-71
2021/09/04 14:01:23;;;;;;;14.43;10.83;;;;;;;;;;5074853;28;20551;-73
2021/09/04 14:03:51;;;;;;;11.23;9.97;;;;;;;;;;5075151;28;20923;-74
2021/09/04 14:06:18;;;;;;;13.93;11.05;;;;;;;;;;5073881;28;20442;-72
2021/09/04 14:08:47;;;;;;;14.90;10.40;;;;;;;;;;5075112;28;20195;-73
2021/09/04 14:11:14;;;;;;;13.07;10.40;;;;;;;;;;5075713;28;20441;-72
2021/09/04 14:13:41;;;;;;;14.10;11.50;;;;;;;;;;5074453;28;20472;-72
2021/09/04 14:16:08;;;;;;;13.70;11.03;;;;;;;;;;5074472;28;20441;-72
2021/09/04 14:18:36;;;;;;;20.70;12.00;;;;;;;;;;5074684;28;20943;-72
2021/09/04 14:21:03;;;;;;;17.50;11.83;;;;;;;;;;5074625;28;20527;-72